Time;durP1;ratioP1;P1;durP2;ratioP2;P2;SDS_P1;SDS_P2;PMS_P1;PMS_P2;Temp;Humidity;BMP_temperature;BMP_pressure;BME280_temperature;BME280_humidity;BME280_pressure;Samples;Min_cycle;Max_cycle;Signal;HPM_P1;HPM_P2
2021/12/22 00:00:20;;;;;;;44.17;24.85;;;-0.20;99.90;;;;;;5048470;28;20021;-74
2021/12/22 00:02:48;;;;;;;48.70;24.95;;;-0.30;99.90;;;;;;5030748;28;20034;-74
2021/12/22 00:05:23;;;;;;;46.92;24.48;;;-0.30;99.90;;;;;;5028547;28;20025;-74
2021/12/22 00:07:49;;;;;;;48.63;25.33;;;-0.30;99.90;;;;;;5028659;28;20029;-73
2021/12/22 00:10:15;;;;;;;48.67;24.15;;;-0.30;99.90;;;;;;5028788;28;20026;-73
2021/12/22 00:12:41;;;;;;;45.42;24.50;;;-0.30;99.90;;;;;;5028702;28;20022;-74
2021/12/22 00:15:08;;;;;;;50.15;25.25;;;-0.40;99.90;;;;;;5028547;28;20022;-74
2021/12/22 00:17:34;;;;;;;49.67;25.63;;;-0.30;99.90;;;;;;5028289;28;20044;-74
2021/12/22 00:20:00;;;;;;;49.88;25.58;;;-0.40;99.90;;;;;;5028328;28;20061;-74
2021/12/22 00:22:26;;;;;;;49.95;25.33;;;-0.40;99.90;;;;;;5028361;28;20487;-74
2021/12/22 00:24:51;;;;;;;55.45;25.98;;;-0.40;99.90;;;;;;5028630;28;20112;-74
2021/12/22 00:27:17;;;;;;;51.22;27.27;;;-0.40;99.90;;;;;;5028178;28;20056;-74
2021/12/22 00:29:47;;;;;;;55.35;27.10;;;-0.40;99.90;;;;;;5028379;28;20029;-74
2021/12/22 00:32:16;;;;;;;54.45;26.80;;;-0.40;99.90;;;;;;5028309;28;20033;-74
2021/12/22 00:34:49;;;;;;;59.35;26.60;;;-0.30;99.90;;;;;;5028981;28;20026;-74
2021/12/22 00:37:26;;;;;;;51.03;26.40;;;-0.40;99.90;;;;;;5028347;28;20458;-74
2021/12/22 00:39:53;;;;;;;49.92;25.75;;;-0.40;99.90;;;;;;5028085;28;20033;-74
2021/12/22 00:42:20;;;;;;;51.30;25.10;;;-0.40;99.90;;;;;;5027968;28;20498;-74
2021/12/22 00:44:50;;;;;;;55.03;26.35;;;-0.40;99.90;;;;;;5028036;28;20025;-74
2021/12/22 00:47:22;;;;;;;55.75;26.42;;;-0.40;99.90;;;;;;5026653;28;20040;-73
2021/12/22 00:49:48;;;;;;;54.67;26.58;;;-0.40;99.90;;;;;;5027112;28;20078;-74
2021/12/22 00:52:14;;;;;;;47.22;25.80;;;-0.40;99.90;;;;;;5027804;28;20022;-74
2021/12/22 00:54:40;;;;;;;54.55;25.40;;;-0.40;99.90;;;;;;5028014;28;20470;-74
2021/12/22 00:57:06;;;;;;;55.15;26.00;;;-0.40;99.90;;;;;;5026467;28;20047;-74
2021/12/22 00:59:36;;;;;;;55.92;25.95;;;-0.40;99.90;;;;;;5027956;28;20025;-74
2021/12/22 01:02:05;;;;;;;53.88;26.88;;;-0.40;99.90;;;;;;5039344;28;20112;-74
2021/12/22 01:04:31;;;;;;;61.38;27.70;;;-0.40;99.90;;;;;;5047824;28;20049;-74
2021/12/22 01:06:57;;;;;;;60.53;29.58;;;-0.40;99.90;;;;;;5047483;27;20264;-74
2021/12/22 01:09:22;;;;;;;60.15;27.42;;;-0.40;99.90;;;;;;5047808;27;20025;-74
2021/12/22 01:11:49;;;;;;;54.80;26.38;;;-0.40;99.90;;;;;;5047493;27;20025;-73
2021/12/22 01:14:15;;;;;;;58.90;28.02;;;-0.40;99.90;;;;;;5047550;28;20025;-73
2021/12/22 01:16:46;;;;;;;58.83;27.08;;;-0.40;99.90;;;;;;5047414;28;20052;-73
2021/12/22 01:19:16;;;;;;;54.60;26.13;;;-0.50;99.90;;;;;;5046342;28;20040;-73
2021/12/22 01:21:50;;;;;;;50.75;24.50;;;-0.40;99.90;;;;;;5046179;28;20050;-73
2021/12/22 01:24:28;;;;;;;60.78;26.02;;;-0.50;99.90;;;;;;5047270;28;20033;-73
2021/12/22 01:27:02;;;;;;;52.45;25.27;;;-0.50;99.90;;;;;;5047375;28;20097;-73
2021/12/22 01:29:28;;;;;;;40.38;18.65;;;-0.50;99.90;;;;;;5047337;28;20520;-73
2021/12/22 01:31:56;;;;;;;50.33;24.77;;;-0.50;99.90;;;;;;5047091;27;20025;-74
2021/12/22 01:34:22;;;;;;;55.45;25.13;;;-0.50;99.90;;;;;;5045897;27;20025;-73
2021/12/22 01:36:48;;;;;;;49.13;24.52;;;-0.50;99.90;;;;;;5047079;28;20021;-73
2021/12/22 01:39:13;;;;;;;60.45;26.23;;;-0.50;99.90;;;;;;5047449;27;20029;-73
2021/12/22 01:41:39;;;;;;;50.90;24.77;;;-0.50;99.90;;;;;;5062640;27;20033;-73
2021/12/22 01:44:05;;;;;;;54.10;24.42;;;-0.50;99.90;;;;;;5047429;28;20497;-73
2021/12/22 01:49:14;;;;;;;57.40;26.48;;;-0.50;99.90;;;;;;5047104;28;20028;-73
2021/12/22 01:51:46;;;;;;;52.17;25.27;;;-0.50;99.90;;;;;;5047090;28;20018;-73
2021/12/22 01:54:17;;;;;;;57.20;25.35;;;-0.50;99.90;;;;;;5047226;28;20546;-72
2021/12/22 01:56:43;;;;;;;59.28;26.30;;;-0.50;99.90;;;;;;5047160;27;20021;-73
2021/12/22 01:59:09;;;;;;;59.90;25.63;;;-0.50;99.90;;;;;;5046939;28;20104;-72
2021/12/22 02:01:35;;;;;;;62.47;27.20;;;-0.50;99.90;;;;;;5040357;27;20033;-73
2021/12/22 02:04:04;;;;;;;58.22;26.08;;;-0.50;99.90;;;;;;5029083;28;20021;-73
2021/12/22 02:06:30;;;;;;;60.47;27.38;;;-0.50;99.90;;;;;;5030633;28;20073;-73
2021/12/22 02:08:58;;;;;;;55.25;25.92;;;-0.40;99.90;;;;;;5030690;28;20013;-73
2021/12/22 02:11:24;;;;;;;60.95;28.23;;;-0.40;99.90;;;;;;5030443;28;20035;-73
2021/12/22 02:13:59;;;;;;;60.47;27.27;;;-0.40;99.90;;;;;;5030303;28;20033;-73
2021/12/22 02:16:30;;;;;;;60.83;26.60;;;-0.50;99.90;;;;;;5030532;28;20025;-73
2021/12/22 02:18:57;;;;;;;58.28;26.90;;;-0.50;99.90;;;;;;5030543;28;20374;-74
2021/12/22 02:21:25;;;;;;;63.80;26.77;;;-0.50;99.90;;;;;;5030287;28;20026;-74
2021/12/22 02:23:52;;;;;;;56.92;26.08;;;-0.50;99.90;;;;;;5030327;28;20569;-74
2021/12/22 02:26:32;;;;;;;58.17;26.33;;;-0.50;99.90;;;;;;5030289;28;20029;-74
2021/12/22 02:29:05;;;;;;;53.38;26.33;;;-0.50;99.90;;;;;;5030249;28;20045;-74
2021/12/22 02:31:38;;;;;;;61.28;26.15;;;-0.50;99.90;;;;;;5030279;28;20537;-74
2021/12/22 02:34:05;;;;;;;59.97;26.05;;;-0.50;99.90;;;;;;5030173;28;20038;-74
2021/12/22 02:36:37;;;;;;;57.97;25.63;;;-0.50;99.90;;;;;;5030175;28;20485;-74
2021/12/22 02:39:04;;;;;;;55.90;25.60;;;-0.50;99.90;;;;;;5029752;28;20113;-74
2021/12/22 02:41:31;;;;;;;57.38;25.77;;;-0.50;99.90;;;;;;5029538;28;20030;-74
2021/12/22 02:43:58;;;;;;;54.08;25.02;;;-0.50;99.90;;;;;;5029787;28;20109;-74
2021/12/22 02:46:28;;;;;;;56.13;25.42;;;-0.50;99.90;;;;;;5029923;28;20018;-74
2021/12/22 02:48:54;;;;;;;58.70;25.20;;;-0.60;99.90;;;;;;5029798;28;20021;-73
2021/12/22 02:51:20;;;;;;;52.47;23.95;;;-0.60;99.90;;;;;;5029810;28;20030;-74
2021/12/22 02:54:04;;;;;;;53.33;24.08;;;-0.60;99.90;;;;;;5029794;28;20505;-73
2021/12/22 02:56:39;;;;;;;47.50;24.25;;;-0.70;99.90;;;;;;5029949;28;20028;-74
2021/12/22 02:59:30;;;;;;;48.90;24.10;;;-0.70;99.90;;;;;;5029901;28;20022;-74
2021/12/22 03:04:49;;;;;;;47.08;23.52;;;-0.70;99.90;;;;;;5049488;28;20145;-73
2021/12/22 03:07:17;;;;;;;53.13;23.33;;;-0.70;99.90;;;;;;5049660;28;20029;-74
2021/12/22 03:09:52;;;;;;;54.20;23.13;;;-0.80;99.90;;;;;;5049497;28;20024;-74
2021/12/22 03:12:18;;;;;;;47.13;22.40;;;-0.80;99.90;;;;;;5049242;28;20082;-74
2021/12/22 03:14:43;;;;;;;48.53;24.00;;;-0.80;99.90;;;;;;5048757;27;20029;-74
2021/12/22 03:17:09;;;;;;;49.95;22.92;;;-0.80;99.90;;;;;;5049815;27;20088;-74
2021/12/22 03:19:35;;;;;;;55.72;24.17;;;-0.80;99.90;;;;;;5049377;27;20017;-74
2021/12/22 03:22:05;;;;;;;48.25;23.10;;;-0.90;99.90;;;;;;5049262;28;20067;-73
2021/12/22 03:24:34;;;;;;;57.45;22.88;;;-0.90;99.90;;;;;;5049290;28;20021;-74
2021/12/22 03:27:02;;;;;;;45.47;22.88;;;-0.90;99.90;;;;;;5049227;28;20032;-74
2021/12/22 03:29:29;;;;;;;46.08;22.00;;;-0.90;99.90;;;;;;5047652;27;20048;-73
2021/12/22 03:31:55;;;;;;;50.15;23.58;;;-0.90;99.90;;;;;;5049215;28;20021;-73
2021/12/22 03:34:21;;;;;;;49.67;22.42;;;-1.00;99.90;;;;;;5049375;27;20073;-74
2021/12/22 03:36:47;;;;;;;44.80;22.38;;;-1.00;99.90;;;;;;5049236;28;20096;-73
2021/12/22 03:39:14;;;;;;;46.40;23.63;;;-1.00;99.90;;;;;;5049172;28;20162;-73
2021/12/22 03:41:41;;;;;;;52.03;23.13;;;-1.00;99.90;;;;;;5049293;28;20077;-74
2021/12/22 03:44:08;;;;;;;50.17;23.20;;;-1.00;99.90;;;;;;5049724;28;20032;-73
2021/12/22 03:46:34;;;;;;;46.70;23.02;;;-1.00;99.90;;;;;;5050011;28;20046;-74
2021/12/22 03:49:00;;;;;;;55.42;22.13;;;-1.00;99.90;;;;;;5051600;28;20026;-74
2021/12/22 03:51:26;;;;;;;50.22;22.80;;;-1.00;99.90;;;;;;5053470;28;20104;-73
2021/12/22 03:53:52;;;;;;;49.28;21.73;;;-1.00;99.90;;;;;;5067676;28;20045;-72
2021/12/22 03:56:18;;;;;;;47.22;23.17;;;-1.10;99.90;;;;;;5051661;27;20031;-73
2021/12/22 03:58:44;;;;;;;47.05;23.33;;;-1.10;99.90;;;;;;5050833;28;20060;-72
2021/12/22 04:01:10;;;;;;;51.88;23.48;;;-1.10;99.90;;;;;;5045834;28;20061;-73
2021/12/22 04:03:37;;;;;;;55.38;23.80;;;-1.10;99.90;;;;;;5031370;28;20049;-73
2021/12/22 04:06:05;;;;;;;51.20;23.65;;;-1.10;99.90;;;;;;5030564;28;20080;-73
2021/12/22 04:08:30;;;;;;;50.65;23.90;;;-1.10;99.90;;;;;;5029375;28;20482;-73
2021/12/22 04:10:56;;;;;;;55.42;24.45;;;-1.10;99.90;;;;;;5029668;28;20060;-73
2021/12/22 04:13:22;;;;;;;55.20;24.30;;;-1.10;99.90;;;;;;5029594;28;20044;-72
2021/12/22 04:15:48;;;;;;;59.85;24.63;;;-1.10;99.90;;;;;;5029375;28;20030;-72
2021/12/22 04:18:14;;;;;;;50.05;23.00;;;-1.20;99.90;;;;;;5030275;28;20083;-72
2021/12/22 04:20:40;;;;;;;55.92;24.13;;;-1.10;99.90;;;;;;5030164;28;20057;-73
2021/12/22 04:23:06;;;;;;;51.33;24.23;;;-1.20;99.90;;;;;;5031039;28;20049;-73
2021/12/22 04:25:33;;;;;;;51.53;23.92;;;-1.20;99.90;;;;;;5029820;28;20138;-73
2021/12/22 04:28:05;;;;;;;60.55;24.60;;;-1.20;99.90;;;;;;5028588;28;20050;-73
2021/12/22 04:30:32;;;;;;;49.58;22.70;;;-1.20;99.90;;;;;;5028237;28;20493;-74
2021/12/22 04:32:59;;;;;;;52.05;24.13;;;-1.20;99.90;;;;;;5028193;28;20022;-73
2021/12/22 04:35:25;;;;;;;54.45;23.98;;;-1.20;99.90;;;;;;5028183;28;20367;-73
2021/12/22 04:37:50;;;;;;;56.65;24.60;;;-1.20;99.90;;;;;;5028223;28;20105;-73
2021/12/22 04:40:16;;;;;;;49.95;22.88;;;-1.10;99.90;;;;;;5028022;28;20029;-74
2021/12/22 04:42:43;;;;;;;57.28;23.67;;;-1.10;99.90;;;;;;5028127;28;20048;-73
2021/12/22 04:45:09;;;;;;;57.47;23.00;;;-1.10;99.90;;;;;;5028011;28;20049;-73
2021/12/22 04:47:35;;;;;;;51.55;23.25;;;-1.10;99.90;;;;;;5026805;28;20065;-73
2021/12/22 04:50:03;;;;;;;54.92;23.67;;;-1.10;99.90;;;;;;5028440;28;20078;-74
2021/12/22 04:52:39;;;;;;;54.92;23.13;;;-1.10;99.90;;;;;;5027820;28;20049;-74
2021/12/22 04:55:05;;;;;;;55.63;23.63;;;-1.10;99.90;;;;;;5028288;28;20038;-74
2021/12/22 04:57:34;;;;;;;49.78;23.35;;;-1.20;99.90;;;;;;5027896;28;20022;-73
2021/12/22 05:00:00;;;;;;;56.10;24.40;;;-1.10;99.90;;;;;;5027782;28;20394;-73
2021/12/22 05:02:26;;;;;;;58.30;23.90;;;-1.20;99.90;;;;;;5042350;28;20040;-72
2021/12/22 05:04:52;;;;;;;62.40;25.90;;;-1.20;99.90;;;;;;5048031;28;20017;-72
2021/12/22 05:07:18;;;;;;;59.30;26.83;;;-1.20;99.90;;;;;;5047565;28;20025;-73
2021/12/22 05:09:43;;;;;;;67.57;30.30;;;-1.20;99.90;;;;;;5047963;28;20496;-73
2021/12/22 05:12:09;;;;;;;70.18;29.17;;;-1.20;99.90;;;;;;5047527;27;20025;-73
2021/12/22 05:14:35;;;;;;;63.15;28.92;;;-1.20;99.90;;;;;;5047718;28;20052;-73
2021/12/22 05:17:03;;;;;;;62.95;27.60;;;-1.20;99.90;;;;;;5046121;27;20048;-72
2021/12/22 05:19:29;;;;;;;56.47;26.80;;;-1.20;99.90;;;;;;5062718;27;20070;-72
2021/12/22 05:21:55;;;;;;;62.05;26.65;;;-1.20;99.90;;;;;;5047321;28;20478;-73
2021/12/22 05:24:21;;;;;;;55.78;26.17;;;-1.20;99.90;;;;;;5047432;28;20029;-73
2021/12/22 05:26:47;;;;;;;56.90;25.35;;;-1.20;99.90;;;;;;5047803;27;20033;-72
2021/12/22 05:29:13;;;;;;;59.75;26.42;;;-1.20;99.90;;;;;;5047126;28;20060;-72
2021/12/22 05:31:38;;;;;;;55.85;25.17;;;-1.20;99.90;;;;;;5046319;28;20519;-72
2021/12/22 05:34:05;;;;;;;57.85;24.50;;;-1.20;99.90;;;;;;5047785;27;20104;-72
2021/12/22 05:36:30;;;;;;;59.55;24.20;;;-1.20;99.90;;;;;;5048715;28;20021;-73
2021/12/22 05:38:56;;;;;;;59.25;24.60;;;-1.20;99.90;;;;;;5069329;27;20614;-74
2021/12/22 05:41:22;;;;;;;52.78;23.50;;;-1.20;99.90;;;;;;5053911;27;20099;-72
2021/12/22 05:43:48;;;;;;;53.30;24.80;;;-1.20;99.90;;;;;;5054010;28;20228;-73
2021/12/22 05:46:14;;;;;;;54.97;23.02;;;-1.20;99.90;;;;;;5052485;27;20130;-73
2021/12/22 05:48:39;;;;;;;53.35;23.33;;;-1.20;99.90;;;;;;5053615;28;20017;-72
2021/12/22 05:51:05;;;;;;;60.75;25.00;;;-1.20;99.90;;;;;;5052322;27;20117;-73
2021/12/22 05:53:31;;;;;;;50.40;24.00;;;-1.20;99.90;;;;;;5052442;28;20055;-73
2021/12/22 05:55:57;;;;;;;55.83;23.92;;;-1.20;99.90;;;;;;5054072;27;20029;-73
2021/12/22 05:58:23;;;;;;;52.90;23.75;;;-1.20;99.90;;;;;;5035668;28;20032;-72
2021/12/22 06:00:49;;;;;;;51.65;24.33;;;-1.20;99.90;;;;;;5035016;28;20029;-72
2021/12/22 06:03:15;;;;;;;49.85;23.73;;;-1.30;99.90;;;;;;5053383;28;20082;-72
2021/12/22 06:05:42;;;;;;;55.05;23.33;;;-1.20;99.90;;;;;;5053537;28;20021;-72
2021/12/22 06:08:08;;;;;;;55.97;23.95;;;-1.30;99.90;;;;;;5042111;28;20029;-73
2021/12/22 06:10:34;;;;;;;52.28;22.98;;;-1.30;99.90;;;;;;5038471;28;20038;-73
2021/12/22 06:13:10;;;;;;;50.60;22.13;;;-1.30;99.90;;;;;;5033508;28;20017;-72
2021/12/22 06:15:38;;;;;;;53.55;22.75;;;-1.30;99.90;;;;;;5033625;28;20523;-73
2021/12/22 06:18:05;;;;;;;49.78;22.55;;;-1.30;99.90;;;;;;5048663;28;20532;-73
2021/12/22 06:20:31;;;;;;;53.95;23.83;;;-1.30;99.90;;;;;;5033376;28;20028;-72
2021/12/22 06:22:58;;;;;;;50.70;23.08;;;-1.30;99.90;;;;;;5033347;28;20032;-72
2021/12/22 06:25:25;;;;;;;51.47;22.73;;;-1.30;99.90;;;;;;5048914;28;20036;-73
2021/12/22 06:27:51;;;;;;;49.28;22.63;;;-1.30;99.90;;;;;;5032825;28;20021;-73
2021/12/22 06:30:18;;;;;;;56.65;23.30;;;-1.30;99.90;;;;;;5033607;28;20466;-73
2021/12/22 06:32:44;;;;;;;47.92;22.35;;;-1.30;99.90;;;;;;5033352;28;20436;-73
2021/12/22 06:35:11;;;;;;;55.28;23.35;;;-1.30;99.90;;;;;;5041231;28;20132;-73
2021/12/22 06:37:36;;;;;;;56.50;24.23;;;-1.40;99.90;;;;;;5051957;27;20113;-73
2021/12/22 06:40:04;;;;;;;53.45;22.90;;;-1.40;99.90;;;;;;5053057;28;20024;-73
2021/12/22 06:42:31;;;;;;;51.33;24.27;;;-1.40;99.90;;;;;;5053024;28;20398;-72
2021/12/22 06:44:56;;;;;;;56.50;24.05;;;-1.40;99.90;;;;;;5046701;28;20033;-73
2021/12/22 06:47:22;;;;;;;53.20;23.15;;;-1.40;99.90;;;;;;5034440;28;20383;-72
2021/12/22 06:49:47;;;;;;;53.67;23.27;;;-1.40;99.90;;;;;;5030583;28;20018;-72
2021/12/22 06:52:13;;;;;;;57.38;24.30;;;-1.40;99.90;;;;;;5036397;28;20049;-73
2021/12/22 06:54:39;;;;;;;48.65;22.98;;;-1.40;99.90;;;;;;5035127;28;20030;-73
2021/12/22 06:57:04;;;;;;;52.33;23.27;;;-1.40;99.90;;;;;;5049656;28;20021;-73
2021/12/22 06:59:32;;;;;;;56.72;24.00;;;-1.40;99.90;;;;;;5049311;28;20500;-73
2021/12/22 07:01:57;;;;;;;54.22;23.52;;;-1.40;99.90;;;;;;5049285;28;20077;-73
2021/12/22 07:04:23;;;;;;;52.83;23.10;;;-1.40;99.90;;;;;;5029842;28;20027;-73
2021/12/22 07:06:49;;;;;;;53.85;23.63;;;-1.40;99.90;;;;;;5047597;28;20025;-72
2021/12/22 07:09:15;;;;;;;56.53;24.00;;;-1.40;99.90;;;;;;5049343;28;20529;-72
2021/12/22 07:11:43;;;;;;;55.72;23.27;;;-1.40;99.90;;;;;;5049406;27;20025;-73
2021/12/22 07:14:09;;;;;;;57.67;23.33;;;-1.50;99.90;;;;;;5043416;28;20030;-73
2021/12/22 07:16:35;;;;;;;53.20;23.30;;;-1.50;99.90;;;;;;5036638;28;20070;-73
2021/12/22 07:19:01;;;;;;;62.58;24.88;;;-1.50;99.90;;;;;;5047138;28;20029;-73
2021/12/22 07:21:27;;;;;;;54.20;23.60;;;-1.50;99.90;;;;;;5035849;28;20033;-73
2021/12/22 07:23:53;;;;;;;53.80;24.25;;;-1.50;99.90;;;;;;5036688;28;20052;-73
2021/12/22 07:26:18;;;;;;;52.92;23.27;;;-1.50;99.90;;;;;;5027974;28;20042;-73
2021/12/22 07:28:48;;;;;;;56.95;23.83;;;-1.40;99.90;;;;;;5027507;28;20053;-73
2021/12/22 07:31:16;;;;;;;58.03;24.70;;;-1.50;99.90;;;;;;5028978;28;20433;-72
2021/12/22 07:34:07;;;;;;;59.90;24.48;;;-1.40;99.90;;;;;;5033393;28;20022;-73
2021/12/22 07:36:40;;;;;;;58.35;23.45;;;-1.40;99.90;;;;;;5040111;28;20369;-73
2021/12/22 07:39:06;;;;;;;53.30;22.63;;;-1.40;99.90;;;;;;5080736;27;20490;-73
2021/12/22 07:41:31;;;;;;;51.85;22.83;;;-1.40;99.90;;;;;;5041881;28;20026;-73
2021/12/22 07:43:57;;;;;;;51.90;22.98;;;-1.40;99.90;;;;;;5043095;28;20370;-73
2021/12/22 07:46:23;;;;;;;52.20;22.80;;;-1.40;99.90;;;;;;5038307;28;20463;-73
2021/12/22 07:48:49;;;;;;;51.95;23.25;;;-1.40;99.90;;;;;;5040442;27;20528;-71
2021/12/22 07:51:15;;;;;;;54.95;22.27;;;-1.40;99.90;;;;;;5041611;27;20349;-73
2021/12/22 07:53:40;;;;;;;56.65;23.08;;;-1.40;99.90;;;;;;5039060;28;20053;-72
2021/12/22 07:56:06;;;;;;;53.05;23.10;;;-1.40;99.90;;;;;;5036261;28;20485;-73
2021/12/22 07:58:32;;;;;;;51.35;22.77;;;-1.40;99.90;;;;;;5036167;28;20070;-73
2021/12/22 08:00:59;;;;;;;52.63;22.45;;;-1.40;99.90;;;;;;5036680;28;20416;-73
2021/12/22 08:03:25;;;;;;;48.72;22.48;;;-1.40;99.90;;;;;;5037290;28;20424;-72
2021/12/22 08:05:52;;;;;;;49.90;22.48;;;-1.40;99.90;;;;;;5032252;28;20070;-73
2021/12/22 08:08:19;;;;;;;53.60;22.73;;;-1.40;99.90;;;;;;5035357;28;20049;-73
2021/12/22 08:10:46;;;;;;;54.08;23.08;;;-1.40;99.90;;;;;;5038517;28;20076;-73
2021/12/22 08:13:11;;;;;;;53.47;23.23;;;-1.40;99.90;;;;;;5033004;28;20031;-73
2021/12/22 08:15:37;;;;;;;48.50;22.27;;;-1.40;99.90;;;;;;5030160;28;20494;-74
2021/12/22 08:18:03;;;;;;;51.55;21.80;;;-1.40;99.90;;;;;;5027448;28;20021;-73
2021/12/22 08:20:28;;;;;;;49.35;21.90;;;-1.40;99.90;;;;;;5031608;28;20029;-73
2021/12/22 08:22:54;;;;;;;52.80;22.63;;;-1.40;99.90;;;;;;5029922;28;20018;-73
2021/12/22 08:25:20;;;;;;;48.88;21.85;;;-1.40;99.90;;;;;;5036635;28;20488;-73
2021/12/22 08:27:46;;;;;;;45.65;22.67;;;-1.40;99.90;;;;;;5033285;28;20017;-72
2021/12/22 08:30:13;;;;;;;50.90;22.52;;;-1.40;99.90;;;;;;5040741;28;20044;-72
2021/12/22 08:32:39;;;;;;;49.58;21.98;;;-1.40;99.90;;;;;;5047928;27;20048;-73
2021/12/22 08:35:07;;;;;;;52.92;22.77;;;-1.40;99.90;;;;;;5040768;28;20064;-73
2021/12/22 08:40:20;;;;;;;49.30;22.17;;;-1.30;99.90;;;;;;5028414;28;20128;-73
2021/12/22 08:42:46;;;;;;;49.15;22.08;;;-1.30;99.90;;;;;;5037832;28;20059;-73
2021/12/22 08:45:12;;;;;;;45.45;21.58;;;-1.30;99.90;;;;;;5045010;28;20057;-73
2021/12/22 08:47:38;;;;;;;54.00;22.85;;;-1.30;99.90;;;;;;5027533;28;20045;-72
2021/12/22 08:50:06;;;;;;;49.50;22.38;;;-1.30;99.90;;;;;;5025852;28;20039;-73
2021/12/22 08:52:32;;;;;;;47.33;22.95;;;-1.20;99.90;;;;;;5028762;28;20030;-72
2021/12/22 08:54:58;;;;;;;48.25;23.33;;;-1.20;99.90;;;;;;5026964;28;20033;-73
2021/12/22 08:57:24;;;;;;;43.47;21.65;;;-1.10;99.90;;;;;;5026586;28;20478;-72
2021/12/22 08:59:50;;;;;;;50.55;23.50;;;-1.10;99.90;;;;;;5027646;28;20100;-73
2021/12/22 09:02:15;;;;;;;57.67;24.58;;;-1.10;99.90;;;;;;5025778;28;20034;-72
2021/12/22 09:04:41;;;;;;;48.78;24.55;;;-1.00;99.90;;;;;;5028628;28;20022;-72
2021/12/22 09:07:07;;;;;;;53.53;25.02;;;-1.00;99.90;;;;;;5027754;28;20025;-72
2021/12/22 09:09:33;;;;;;;52.28;24.45;;;-0.90;99.90;;;;;;5037419;28;20668;-74
2021/12/22 09:11:58;;;;;;;55.03;25.48;;;-0.90;99.90;;;;;;5037039;27;20387;-73
2021/12/22 09:14:25;;;;;;;54.30;25.75;;;-0.80;99.90;;;;;;5037890;28;20028;-73
2021/12/22 09:16:51;;;;;;;54.95;26.33;;;-0.70;99.90;;;;;;5039877;28;20017;-72
2021/12/22 09:19:17;;;;;;;53.60;25.23;;;-0.60;99.90;;;;;;5045712;28;20052;-72
2021/12/22 09:21:43;;;;;;;58.03;25.55;;;-0.60;99.90;;;;;;5035215;28;20074;-72
2021/12/22 09:24:09;;;;;;;48.38;24.42;;;-0.50;99.90;;;;;;5033900;27;20474;-73
2021/12/22 09:26:35;;;;;;;53.85;24.55;;;-0.50;99.90;;;;;;5037141;28;20055;-73
2021/12/22 09:29:01;;;;;;;53.85;24.85;;;-0.50;99.90;;;;;;5028023;28;20132;-73
2021/12/22 09:31:27;;;;;;;51.05;24.90;;;-0.40;99.90;;;;;;5034551;28;20108;-73
2021/12/22 09:33:53;;;;;;;56.10;25.10;;;-0.40;99.90;;;;;;5041287;28;20124;-73
2021/12/22 09:36:19;;;;;;;52.45;25.45;;;-0.30;99.90;;;;;;5038585;28;20021;-73
2021/12/22 09:38:45;;;;;;;48.35;23.17;;;-0.30;99.90;;;;;;5060280;28;20461;-74
2021/12/22 09:41:11;;;;;;;55.22;25.02;;;-0.30;99.90;;;;;;5028387;28;20028;-74
2021/12/22 09:43:37;;;;;;;52.45;23.42;;;-0.20;99.90;;;;;;5026032;28;20079;-73
2021/12/22 09:46:06;;;;;;;48.78;23.92;;;-0.20;99.90;;;;;;5027951;28;20061;-74
2021/12/22 09:53:35;;;;;;;45.22;23.73;;;0.00;99.90;;;;;;5030059;28;20053;-74
2021/12/22 09:56:01;;;;;;;51.67;23.70;;;0.10;99.90;;;;;;5030074;28;20033;-74
2021/12/22 09:58:27;;;;;;;45.33;23.15;;;0.20;99.90;;;;;;5030392;28;20083;-74
2021/12/22 10:00:54;;;;;;;54.70;24.15;;;0.20;99.90;;;;;;5026320;28;20111;-73
2021/12/22 10:03:22;;;;;;;50.45;24.40;;;0.30;99.90;;;;;;5033795;28;20029;-74
2021/12/22 10:05:48;;;;;;;50.28;25.02;;;0.40;99.90;;;;;;5032767;28;20133;-73
2021/12/22 10:08:20;;;;;;;45.55;22.90;;;0.40;99.90;;;;;;5032930;28;20109;-73
2021/12/22 10:11:05;;;;;;;44.47;23.77;;;0.50;99.90;;;;;;5032940;28;20033;-73
2021/12/22 10:13:32;;;;;;;48.13;23.60;;;0.50;99.90;;;;;;5029403;28;20061;-73
2021/12/22 10:15:59;;;;;;;48.85;23.88;;;0.60;99.90;;;;;;5042110;28;20041;-73
2021/12/22 10:18:27;;;;;;;43.85;23.65;;;0.60;99.90;;;;;;5025197;28;20121;-73
2021/12/22 10:21:08;;;;;;;56.25;24.92;;;0.70;99.90;;;;;;5027364;28;20044;-73
2021/12/22 10:23:33;;;;;;;51.13;24.33;;;0.70;99.90;;;;;;5034790;28;20034;-73
2021/12/22 10:26:02;;;;;;;43.45;23.10;;;0.80;99.90;;;;;;5040682;28;20029;-74
2021/12/22 10:28:44;;;;;;;52.83;24.75;;;0.90;99.90;;;;;;5036747;28;20409;-73
2021/12/22 10:31:11;;;;;;;44.08;23.38;;;0.90;99.90;;;;;;5028882;28;20082;-73
2021/12/22 10:33:40;;;;;;;51.55;24.77;;;1.00;99.90;;;;;;5032053;28;20032;-73
2021/12/22 10:36:12;;;;;;;43.90;23.40;;;1.10;99.90;;;;;;5033943;28;20133;-74
2021/12/22 10:38:38;;;;;;;48.10;24.92;;;1.20;99.90;;;;;;5033776;28;20078;-74
2021/12/22 10:41:06;;;;;;;47.22;23.27;;;1.30;99.90;;;;;;5033492;28;20033;-73
2021/12/22 10:43:34;;;;;;;49.63;22.98;;;1.40;99.90;;;;;;5033665;28;20065;-73
2021/12/22 10:46:05;;;;;;;50.72;23.52;;;1.40;99.90;;;;;;5036668;28;20033;-74
2021/12/22 10:51:32;;;;;;;44.30;22.98;;;1.60;99.90;;;;;;5037708;28;20118;-73
2021/12/22 10:53:59;;;;;;;42.80;21.25;;;1.60;99.90;;;;;;5031613;28;20017;-73
2021/12/22 10:56:37;;;;;;;40.28;21.48;;;1.70;99.90;;;;;;5033208;28;20108;-73
2021/12/22 10:59:07;;;;;;;39.78;20.02;;;1.70;99.90;;;;;;5032852;28;20428;-75
2021/12/22 11:01:39;;;;;;;40.75;20.73;;;1.80;99.90;;;;;;5034918;28;20025;-74
2021/12/22 11:04:14;;;;;;;42.47;21.98;;;1.80;99.90;;;;;;5030463;28;20095;-74
2021/12/22 11:06:41;;;;;;;44.33;21.27;;;1.90;99.90;;;;;;5030062;28;20022;-74
2021/12/22 11:09:13;;;;;;;42.63;21.45;;;1.90;99.90;;;;;;5054192;27;20033;-74
2021/12/22 11:11:52;;;;;;;36.15;20.42;;;2.00;99.90;;;;;;5037960;28;20557;-75
2021/12/22 11:14:22;;;;;;;41.25;21.50;;;2.10;99.90;;;;;;5040214;28;20115;-75
2021/12/22 11:17:00;;;;;;;41.30;20.85;;;2.10;99.90;;;;;;5027266;28;20037;-75
2021/12/22 11:19:31;;;;;;;36.67;20.58;;;2.10;99.90;;;;;;5030180;28;20029;-75
2021/12/22 11:22:22;;;;;;;35.33;20.17;;;2.20;99.90;;;;;;5032910;28;20017;-74
2021/12/22 11:24:50;;;;;;;42.63;20.90;;;2.20;99.90;;;;;;5032298;28;20022;-74
2021/12/22 11:27:22;;;;;;;38.20;19.90;;;2.20;99.90;;;;;;5035413;28;20033;-74
2021/12/22 11:29:52;;;;;;;30.48;17.90;;;2.30;99.90;;;;;;5029256;28;20041;-74
2021/12/22 11:32:20;;;;;;;33.55;17.42;;;2.30;99.90;;;;;;5028085;28;20041;-74
2021/12/22 11:34:58;;;;;;;29.50;16.77;;;2.40;99.90;;;;;;5031296;28;20507;-74
2021/12/22 11:37:25;;;;;;;33.28;17.23;;;2.40;99.90;;;;;;5029409;28;20022;-74
2021/12/22 11:39:51;;;;;;;33.58;17.73;;;2.40;99.90;;;;;;5029178;28;20049;-74
2021/12/22 11:42:21;;;;;;;29.60;16.42;;;2.40;99.90;;;;;;5027746;28;20013;-74
2021/12/22 11:44:54;;;;;;;37.67;16.40;;;2.50;99.90;;;;;;5033615;28;20112;-74
2021/12/22 11:47:20;;;;;;;28.85;16.05;;;2.50;99.90;;;;;;5028506;28;20025;-74
2021/12/22 11:50:03;;;;;;;28.55;16.05;;;2.50;99.90;;;;;;5030748;28;20100;-74
2021/12/22 11:52:36;;;;;;;28.10;16.20;;;2.50;99.90;;;;;;5029356;28;20482;-74
2021/12/22 11:55:09;;;;;;;27.23;16.42;;;2.50;99.90;;;;;;5042750;28;20033;-74
2021/12/22 11:57:35;;;;;;;28.15;16.27;;;2.50;99.90;;;;;;5028446;28;20479;-75
2021/12/22 12:00:24;;;;;;;26.35;16.08;;;2.60;99.90;;;;;;5030171;28;20034;-74
2021/12/22 12:02:51;;;;;;;30.77;16.67;;;2.60;99.90;;;;;;5040550;28;20425;-75
2021/12/22 12:05:24;;;;;;;30.40;15.90;;;2.60;99.90;;;;;;5048750;28;20060;-74
2021/12/22 12:08:06;;;;;;;23.02;14.57;;;2.60;99.90;;;;;;5036427;28;20029;-74
2021/12/22 12:10:43;;;;;;;26.40;15.13;;;2.60;99.90;;;;;;5028234;28;20426;-74
2021/12/22 12:13:38;;;;;;;28.08;15.45;;;2.70;99.90;;;;;;5027268;28;20060;-75
2021/12/22 12:21:54;;;;;;;31.13;15.32;;;2.70;99.90;;;;;;5048747;28;20070;-74
2021/12/22 12:24:37;;;;;;;27.10;15.27;;;2.80;99.90;;;;;;5047519;27;20025;-74
2021/12/22 12:27:29;;;;;;;28.70;14.35;;;2.80;99.90;;;;;;5042724;28;20518;-74
2021/12/22 12:30:00;;;;;;;25.38;14.52;;;2.90;99.90;;;;;;5030304;28;20465;-73
2021/12/22 12:32:51;;;;;;;22.60;13.73;;;2.90;99.90;;;;;;5028182;28;20052;-73
2021/12/22 12:35:20;;;;;;;21.02;12.82;;;2.90;99.90;;;;;;5034510;28;20025;-73
2021/12/22 12:37:55;;;;;;;22.30;13.30;;;2.90;99.90;;;;;;5046349;27;20089;-73
2021/12/22 12:40:21;;;;;;;22.95;12.70;;;2.90;99.90;;;;;;5045941;27;20101;-74
2021/12/22 12:42:58;;;;;;;21.05;12.02;;;2.90;99.90;;;;;;5028195;28;20037;-74
2021/12/22 12:45:43;;;;;;;19.10;11.95;;;2.90;99.90;;;;;;5026288;28;20060;-74
2021/12/22 12:48:30;;;;;;;20.92;12.25;;;2.90;99.90;;;;;;5045454;28;20021;-74
2021/12/22 12:51:34;;;;;;;19.80;11.73;;;3.00;99.90;;;;;;5047115;28;20033;-74
2021/12/22 12:54:09;;;;;;;23.67;11.50;;;3.00;99.90;;;;;;5046877;28;20112;-74
2021/12/22 12:56:36;;;;;;;22.35;11.10;;;3.00;99.90;;;;;;5048831;28;20056;-74